createdAt,value
2018-07-13T00:01:57.437Z,6.80
2018-07-13T00:04:26.092Z,6.37
2018-07-13T00:06:54.495Z,13.60
2018-07-13T00:09:23.164Z,9.63
2018-07-13T00:11:51.993Z,8.73
2018-07-13T00:14:22.392Z,13.93
2018-07-13T00:16:51.988Z,11.13
2018-07-13T00:19:21.166Z,9.63
2018-07-13T00:21:49.914Z,18.27
2018-07-13T00:24:18.825Z,11.53
2018-07-13T00:26:47.351Z,11.20
2018-07-13T00:29:16.088Z,12.50
2018-07-13T00:31:45.053Z,6.60
2018-07-13T00:34:13.701Z,8.37
2018-07-13T00:36:42.423Z,10.27
2018-07-13T00:39:12.476Z,8.00
2018-07-13T00:41:41.241Z,11.93
2018-07-13T00:44:09.873Z,19.93
2018-07-13T00:46:38.317Z,17.40
2018-07-13T00:49:06.840Z,11.40
2018-07-13T00:51:35.327Z,12.20
2018-07-13T00:54:03.715Z,10.47
2018-07-13T00:56:32.365Z,14.23
2018-07-13T00:59:00.797Z,8.83
2018-07-13T01:01:29.317Z,8.37
2018-07-13T01:03:57.845Z,12.80
2018-07-13T01:06:26.273Z,14.10
2018-07-13T01:08:54.869Z,11.07
2018-07-13T01:11:23.591Z,14.87
2018-07-13T01:13:52.223Z,9.27
2018-07-13T01:16:20.971Z,21.73
2018-07-13T01:18:49.619Z,13.90
2018-07-13T01:21:18.061Z,10.50
2018-07-13T01:23:46.471Z,9.73
2018-07-13T01:26:15.069Z,17.13
2018-07-13T01:28:43.550Z,12.10
2018-07-13T01:31:11.933Z,13.97
2018-07-13T01:33:40.357Z,14.93
2018-07-13T01:36:08.770Z,14.43
2018-07-13T01:38:37.189Z,15.80
2018-07-13T01:41:05.873Z,16.40
2018-07-13T01:43:34.390Z,20.13
2018-07-13T01:46:03.011Z,15.17
2018-07-13T01:48:31.409Z,12.10
2018-07-13T01:50:59.780Z,10.63
2018-07-13T01:53:28.306Z,9.57
2018-07-13T01:55:56.784Z,16.50
2018-07-13T01:58:25.148Z,14.50
2018-07-13T02:00:53.715Z,12.30
2018-07-13T02:03:22.088Z,12.07
2018-07-13T02:05:50.743Z,9.40
2018-07-13T02:08:19.175Z,12.93
2018-07-13T02:10:47.563Z,21.40
2018-07-13T02:13:15.996Z,11.30
2018-07-13T02:15:44.567Z,15.90
2018-07-13T02:18:13.137Z,18.10
2018-07-13T02:20:41.602Z,13.03
2018-07-13T02:23:10.273Z,13.47
2018-07-13T02:25:38.660Z,16.90
2018-07-13T02:28:07.020Z,19.07
2018-07-13T02:30:35.526Z,23.63
2018-07-13T02:33:03.920Z,20.80
2018-07-13T02:35:32.448Z,13.13
2018-07-13T02:38:00.866Z,13.63
2018-07-13T02:40:29.264Z,15.27
2018-07-13T02:42:57.731Z,19.93
2018-07-13T02:45:26.120Z,16.63
2018-07-13T02:47:54.544Z,21.93
2018-07-13T02:50:23.197Z,16.93
2018-07-13T02:52:51.597Z,21.93
2018-07-13T02:55:19.975Z,15.13
2018-07-13T02:57:48.444Z,15.53
2018-07-13T03:00:16.596Z,19.67
2018-07-13T03:02:44.993Z,15.17
2018-07-13T03:05:13.391Z,17.73
2018-07-13T03:07:41.787Z,16.50
2018-07-13T03:10:10.200Z,20.27
2018-07-13T03:12:38.868Z,21.57
2018-07-13T03:15:07.482Z,21.13
2018-07-13T03:17:35.873Z,22.10
2018-07-13T03:20:04.769Z,21.63
2018-07-13T03:22:33.159Z,18.93
2018-07-13T03:25:01.793Z,16.93
2018-07-13T03:27:30.252Z,17.83
2018-07-13T03:29:58.640Z,19.40
2018-07-13T03:32:27.008Z,17.93
2018-07-13T03:34:55.421Z,26.50
2018-07-13T03:37:23.815Z,24.23
2018-07-13T03:39:52.199Z,22.20
2018-07-13T03:42:20.768Z,19.90
2018-07-13T03:44:49.224Z,25.53
2018-07-13T03:47:17.609Z,18.90
2018-07-13T03:49:46.169Z,17.27
2018-07-13T03:52:14.552Z,18.47
2018-07-13T03:54:42.968Z,24.47
2018-07-13T03:57:11.389Z,24.73
2018-07-13T03:59:39.798Z,21.20
2018-07-13T04:02:08.212Z,23.50
2018-07-13T04:04:36.620Z,20.37
2018-07-13T04:07:05.101Z,24.73
2018-07-13T04:09:33.569Z,26.17
2018-07-13T04:12:04.085Z,26.40
2018-07-13T04:14:32.437Z,29.13
2018-07-13T04:17:00.851Z,39.07
2018-07-13T04:19:30.071Z,26.10
2018-07-13T04:21:58.527Z,27.63
2018-07-13T04:24:27.006Z,23.60
2018-07-13T04:26:55.674Z,25.63
2018-07-13T04:29:24.460Z,24.70
2018-07-13T04:31:52.865Z,20.27
2018-07-13T04:34:21.314Z,23.67
2018-07-13T04:36:49.784Z,18.80
2018-07-13T04:39:18.178Z,16.97
2018-07-13T04:41:46.660Z,15.53
2018-07-13T04:44:14.748Z,22.53
2018-07-13T04:46:43.246Z,27.23
2018-07-13T04:49:11.716Z,26.13
2018-07-13T04:51:40.221Z,23.13
2018-07-13T04:54:08.709Z,19.40
2018-07-13T04:56:37.316Z,24.53
2018-07-13T04:59:05.828Z,21.23
2018-07-13T05:01:34.286Z,23.00
2018-07-13T05:04:02.993Z,21.47
2018-07-13T05:06:33.214Z,25.70
2018-07-13T05:09:01.696Z,30.83
2018-07-13T05:11:30.179Z,19.80
2018-07-13T05:13:58.604Z,16.50
2018-07-13T05:16:27.064Z,21.20
2018-07-13T05:18:55.489Z,21.17
2018-07-13T05:21:24.309Z,19.63
2018-07-13T05:23:52.850Z,16.47
2018-07-13T05:26:21.373Z,18.90
2018-07-13T05:28:49.965Z,15.90
2018-07-13T05:31:18.448Z,15.97
2018-07-13T05:33:47.203Z,19.10
2018-07-13T05:36:15.710Z,20.87
2018-07-13T05:38:44.196Z,19.77
2018-07-13T05:41:13.264Z,15.97
2018-07-13T05:43:41.767Z,15.07
2018-07-13T05:46:10.262Z,12.93
2018-07-13T05:48:39.819Z,22.77
2018-07-13T05:51:08.245Z,15.97
2018-07-13T05:53:37.054Z,19.80
2018-07-13T05:56:05.772Z,17.90
2018-07-13T05:58:34.669Z,22.10
2018-07-13T06:01:03.191Z,18.83
2018-07-13T06:03:31.668Z,22.67
2018-07-13T06:06:00.322Z,23.23
2018-07-13T06:08:29.469Z,28.97
2018-07-13T06:10:58.169Z,20.67
2018-07-13T06:13:26.760Z,25.50
2018-07-13T06:15:55.221Z,19.77
2018-07-13T06:18:23.971Z,20.53
2018-07-13T06:20:52.349Z,20.87
2018-07-13T06:23:20.744Z,23.23
2018-07-13T06:25:49.372Z,23.67
2018-07-13T06:28:17.839Z,25.53
2018-07-13T06:30:46.242Z,25.20
2018-07-13T06:33:14.677Z,24.10
2018-07-13T06:35:43.142Z,23.60
2018-07-13T06:38:11.594Z,23.50
2018-07-13T06:40:40.065Z,27.07
2018-07-13T06:43:08.909Z,27.83
2018-07-13T06:45:40.158Z,23.67
2018-07-13T06:48:09.246Z,24.77
2018-07-13T06:50:38.128Z,26.33
2018-07-13T06:53:06.848Z,24.67
2018-07-13T06:55:35.310Z,22.50
2018-07-13T06:58:15.293Z,26.43
2018-07-13T07:01:00.745Z,23.30
2018-07-13T07:03:30.486Z,24.30
2018-07-13T07:06:05.239Z,28.07
2018-07-13T07:08:33.804Z,20.63
2018-07-13T07:11:02.482Z,21.80
2018-07-13T07:13:35.280Z,22.83
2018-07-13T07:16:03.704Z,19.40
2018-07-13T07:18:32.129Z,23.63
2018-07-13T07:21:00.796Z,24.93
2018-07-13T07:23:29.958Z,18.90
2018-07-13T07:25:59.919Z,21.50
2018-07-13T07:28:28.465Z,20.77
2018-07-13T07:30:57.750Z,19.00
2018-07-13T07:33:26.225Z,16.70
2018-07-13T07:35:54.628Z,17.93
2018-07-13T07:38:23.067Z,22.83
2018-07-13T07:40:51.584Z,16.07
2018-07-13T07:43:20.597Z,21.73
2018-07-13T07:45:49.370Z,21.93
2018-07-13T07:48:17.769Z,20.07
2018-07-13T07:50:46.448Z,14.90
2018-07-13T07:53:14.853Z,16.23
2018-07-13T07:55:43.258Z,21.27
2018-07-13T07:58:11.735Z,18.20
2018-07-13T08:00:40.269Z,10.60
2018-07-13T08:03:08.839Z,11.30
2018-07-13T08:05:37.248Z,13.23
2018-07-13T08:08:05.764Z,11.97
2018-07-13T08:10:34.172Z,18.30
2018-07-13T08:13:02.609Z,21.00
2018-07-13T08:15:30.993Z,12.53
2018-07-13T08:17:59.873Z,13.13
2018-07-13T08:20:31.672Z,11.83
2018-07-13T08:23:03.373Z,10.77
2018-07-13T08:25:31.884Z,11.53
2018-07-13T08:28:02.365Z,16.80
2018-07-13T08:30:42.728Z,18.60
2018-07-13T08:33:11.144Z,11.83
2018-07-13T08:35:39.550Z,21.13
2018-07-13T08:38:08.461Z,20.70
2018-07-13T08:40:36.893Z,64.97
2018-07-13T08:43:05.392Z,44.70
2018-07-13T08:45:33.874Z,20.83
2018-07-13T08:48:02.342Z,19.70
2018-07-13T08:50:31.198Z,36.07
2018-07-13T08:53:00.034Z,16.30
2018-07-13T08:55:28.606Z,19.13
2018-07-13T08:57:57.175Z,10.67
2018-07-13T09:00:25.667Z,12.87
2018-07-13T09:02:54.136Z,11.83
2018-07-13T09:05:22.864Z,13.50
2018-07-13T09:07:51.336Z,8.20
2018-07-13T09:10:19.782Z,7.67
2018-07-13T09:12:48.412Z,8.50
2018-07-13T09:15:16.929Z,9.27
2018-07-13T09:17:45.342Z,9.13
2018-07-13T09:20:14.247Z,7.20
2018-07-13T09:22:42.724Z,12.37
2018-07-13T09:25:11.933Z,9.83
2018-07-13T09:27:41.102Z,5.40
2018-07-13T09:30:10.823Z,8.70
2018-07-13T09:32:39.513Z,6.83
2018-07-13T09:35:08.081Z,9.30
2018-07-13T09:37:36.657Z,6.43
2018-07-13T09:40:05.585Z,6.27
2018-07-13T09:42:34.450Z,6.93
2018-07-13T09:45:03.024Z,7.77
2018-07-13T09:47:31.860Z,8.60
2018-07-13T09:50:00.317Z,10.80
2018-07-13T09:52:28.770Z,5.90
2018-07-13T09:54:57.685Z,5.13
2018-07-13T09:57:26.341Z,6.83
2018-07-13T09:59:54.793Z,6.50
2018-07-13T10:02:23.409Z,7.23
2018-07-13T10:04:51.866Z,4.00
2018-07-13T10:07:20.336Z,5.50
2018-07-13T10:09:48.844Z,4.90
2018-07-13T10:12:18.928Z,6.70
2018-07-13T10:14:47.496Z,6.33
2018-07-13T10:17:15.944Z,6.77
2018-07-13T10:19:44.476Z,11.10
2018-07-13T10:22:14.825Z,6.60
2018-07-13T10:24:44.092Z,6.23
2018-07-13T10:27:14.649Z,6.60
2018-07-13T10:29:46.673Z,4.37
2018-07-13T10:32:15.157Z,7.47
2018-07-13T10:34:43.935Z,5.60
2018-07-13T10:37:12.666Z,8.00
2018-07-13T10:39:41.099Z,5.90
2018-07-13T10:42:09.520Z,6.30
2018-07-13T10:44:37.952Z,6.67
2018-07-13T10:47:06.715Z,5.73
2018-07-13T10:49:35.311Z,3.33
2018-07-13T10:52:03.786Z,5.87
2018-07-13T10:54:32.284Z,7.00
2018-07-13T10:57:00.782Z,4.93
2018-07-13T10:59:29.264Z,8.50
2018-07-13T11:01:57.336Z,8.03
2018-07-13T11:04:25.748Z,4.50
2018-07-13T11:06:54.148Z,4.83
2018-07-13T11:09:22.564Z,5.00
2018-07-13T11:11:51.212Z,4.00
2018-07-13T11:14:19.624Z,8.10
2018-07-13T11:16:48.030Z,6.93
2018-07-13T11:19:16.421Z,5.37
2018-07-13T11:21:44.803Z,5.70
2018-07-13T11:24:13.304Z,5.07
2018-07-13T11:26:41.656Z,8.40
2018-07-13T11:29:10.064Z,5.70
2018-07-13T11:31:38.676Z,9.10
2018-07-13T11:34:07.124Z,4.80
2018-07-13T11:36:35.560Z,5.10
2018-07-13T11:39:06.601Z,6.10
2018-07-13T11:41:35.031Z,4.77
2018-07-13T11:44:03.461Z,5.07
2018-07-13T11:46:31.877Z,4.47
2018-07-13T11:49:00.479Z,5.20
2018-07-13T11:51:28.858Z,5.50
2018-07-13T11:53:57.245Z,8.13
2018-07-13T11:56:25.922Z,5.10
2018-07-13T11:58:54.323Z,4.93
2018-07-13T12:01:22.400Z,9.30
2018-07-13T12:03:50.797Z,4.90
2018-07-13T12:06:19.309Z,6.07
2018-07-13T12:08:47.678Z,7.03
2018-07-13T12:11:16.064Z,14.30
2018-07-13T12:13:44.668Z,6.00
2018-07-13T12:16:13.072Z,6.03
2018-07-13T12:18:41.437Z,5.63
2018-07-13T12:21:09.857Z,6.13
2018-07-13T12:23:38.369Z,7.23
2018-07-13T12:26:06.762Z,4.83
2018-07-13T12:28:35.185Z,5.97
2018-07-13T12:31:03.580Z,7.60
2018-07-13T12:33:32.213Z,5.37
2018-07-13T12:36:00.737Z,5.47
2018-07-13T12:38:29.184Z,6.80
2018-07-13T12:40:57.604Z,4.43
2018-07-13T12:43:26.002Z,5.03
2018-07-13T12:45:54.470Z,2.93
2018-07-13T12:48:22.817Z,4.87
2018-07-13T12:50:51.233Z,5.13
2018-07-13T12:53:19.947Z,5.50
2018-07-13T12:55:48.336Z,4.83
2018-07-13T12:58:16.709Z,12.30
2018-07-13T13:00:45.371Z,5.20
2018-07-13T13:03:13.774Z,4.77
2018-07-13T13:05:42.209Z,6.47
2018-07-13T13:08:10.730Z,3.90
2018-07-13T13:10:39.150Z,4.10
2018-07-13T13:13:07.560Z,6.53
2018-07-13T13:15:35.975Z,5.17
2018-07-13T13:18:04.413Z,7.33
2018-07-13T13:20:32.840Z,6.50
2018-07-13T13:23:01.296Z,7.80
2018-07-13T13:25:29.729Z,6.70
2018-07-13T13:27:58.152Z,6.77
2018-07-13T13:30:26.540Z,8.30
2018-07-13T13:32:55.262Z,5.87
2018-07-13T13:35:23.716Z,4.20
2018-07-13T13:37:52.217Z,5.40
2018-07-13T13:40:21.067Z,6.70
2018-07-13T13:42:49.540Z,6.67
2018-07-13T13:45:18.012Z,4.47
2018-07-13T13:47:46.416Z,6.53
2018-07-13T13:50:14.836Z,6.70
2018-07-13T13:52:43.243Z,6.53
2018-07-13T13:55:11.720Z,6.73
2018-07-13T13:57:40.113Z,8.83
2018-07-13T14:00:08.755Z,4.43
2018-07-13T14:02:37.174Z,4.60
2018-07-13T14:05:07.551Z,8.73
2018-07-13T14:07:36.050Z,4.40
2018-07-13T14:10:04.546Z,3.40
2018-07-13T14:12:33.107Z,6.07
2018-07-13T14:15:01.598Z,5.23
2018-07-13T14:17:30.032Z,7.47
2018-07-13T14:19:58.557Z,5.47
2018-07-13T14:22:26.994Z,4.00
2018-07-13T14:24:55.753Z,7.30
2018-07-13T14:27:24.362Z,4.70
2018-07-13T14:29:53.013Z,4.60
2018-07-13T14:32:21.535Z,4.97
2018-07-13T14:34:49.962Z,3.33
2018-07-13T14:37:18.380Z,5.03
2018-07-13T14:39:46.828Z,3.67
2018-07-13T14:42:15.257Z,4.70
2018-07-13T14:44:43.433Z,4.97
2018-07-13T14:47:11.987Z,5.67
2018-07-13T14:49:40.432Z,9.07
2018-07-13T14:52:39.646Z,4.53
2018-07-13T14:55:08.123Z,4.87
2018-07-13T14:57:36.584Z,6.60
2018-07-13T15:00:05.190Z,6.00
2018-07-13T15:02:33.607Z,4.40
2018-07-13T15:05:02.079Z,4.23
2018-07-13T15:07:30.510Z,4.13
2018-07-13T15:09:58.933Z,3.67
2018-07-13T15:12:27.501Z,5.90
2018-07-13T15:14:56.006Z,6.90
2018-07-13T15:17:24.483Z,6.23
2018-07-13T15:19:52.850Z,4.13
2018-07-13T15:22:21.259Z,5.60
2018-07-13T15:24:49.660Z,4.10
2018-07-13T15:27:18.080Z,4.17
2018-07-13T15:29:46.493Z,5.67
2018-07-13T15:32:14.642Z,4.80
2018-07-13T15:34:43.029Z,7.10
2018-07-13T15:37:11.412Z,4.17
2018-07-13T15:39:39.949Z,3.33
2018-07-13T15:42:09.207Z,4.80
2018-07-13T15:44:37.651Z,4.00
2018-07-13T15:47:06.278Z,5.40
2018-07-13T15:49:35.212Z,5.43
2018-07-13T15:52:03.621Z,6.37
2018-07-13T15:54:32.038Z,4.70
2018-07-13T15:57:00.440Z,9.33
2018-07-13T15:59:29.811Z,4.43
2018-07-13T16:01:59.084Z,6.03
2018-07-13T16:04:27.791Z,5.77
2018-07-13T16:06:57.112Z,3.40
2018-07-13T16:09:25.692Z,5.80
2018-07-13T16:11:54.125Z,4.17
2018-07-13T16:14:22.532Z,3.83
2018-07-13T16:16:51.020Z,3.37
2018-07-13T16:19:19.397Z,7.37
2018-07-13T16:21:47.829Z,5.67
2018-07-13T16:24:16.265Z,8.17
2018-07-13T16:26:45.353Z,6.10
2018-07-13T16:29:13.761Z,4.70
2018-07-13T16:31:42.850Z,4.13
2018-07-13T16:34:11.268Z,6.20
2018-07-13T16:36:39.661Z,9.53
2018-07-13T16:39:08.404Z,5.03
2018-07-13T16:41:36.908Z,10.63
2018-07-13T16:44:05.372Z,4.80
2018-07-13T16:46:33.831Z,3.60
2018-07-13T16:49:02.257Z,6.60
2018-07-13T16:51:30.408Z,13.00
2018-07-13T16:53:58.814Z,4.73
2018-07-13T16:56:27.498Z,4.23
2018-07-13T16:58:55.857Z,8.10
2018-07-13T17:01:23.936Z,4.97
2018-07-13T17:03:52.384Z,8.53
2018-07-13T17:06:20.846Z,5.00
2018-07-13T17:08:49.464Z,6.40
2018-07-13T17:11:17.853Z,4.90
2018-07-13T17:13:46.289Z,3.87
2018-07-13T17:16:14.790Z,5.87
2018-07-13T17:18:43.252Z,7.57
2018-07-13T17:21:11.843Z,7.27
2018-07-13T17:23:40.420Z,5.60
2018-07-13T17:26:09.250Z,2.80
2018-07-13T17:28:37.612Z,4.67
2018-07-13T17:31:06.796Z,9.83
2018-07-13T17:33:36.082Z,6.17
2018-07-13T17:36:04.894Z,4.00
2018-07-13T17:38:33.257Z,8.90
2018-07-13T17:41:01.656Z,4.20
2018-07-13T17:43:30.101Z,5.30
2018-07-13T17:45:58.538Z,5.70
2018-07-13T17:48:26.956Z,5.67
2018-07-13T17:50:55.572Z,7.53
2018-07-13T17:53:23.998Z,5.33
2018-07-13T17:55:52.488Z,9.13
2018-07-13T17:58:20.928Z,8.10
2018-07-13T18:00:49.432Z,6.37
2018-07-13T18:03:17.967Z,5.40
2018-07-13T18:05:46.393Z,5.30
2018-07-13T18:08:14.792Z,8.43
2018-07-13T18:10:43.206Z,5.57
2018-07-13T18:13:11.604Z,4.60
2018-07-13T18:15:40.271Z,4.83
2018-07-13T18:18:08.801Z,8.00
2018-07-13T18:20:37.429Z,6.40
2018-07-13T18:23:05.935Z,7.67
2018-07-13T18:25:34.386Z,4.77
2018-07-13T18:28:02.862Z,4.10
2018-07-13T18:30:31.293Z,9.40
2018-07-13T18:32:59.693Z,6.13
2018-07-13T18:35:28.108Z,7.00
2018-07-13T18:37:56.553Z,8.93
2018-07-13T18:40:25.080Z,5.87
2018-07-13T18:42:53.768Z,3.73
2018-07-13T18:45:22.517Z,3.00
2018-07-13T18:47:51.516Z,6.87
2018-07-13T18:50:19.953Z,9.00
2018-07-13T18:52:48.448Z,4.40
2018-07-13T18:55:16.877Z,6.43
2018-07-13T18:57:45.426Z,7.03
2018-07-13T19:00:13.909Z,6.57
2018-07-13T19:02:43.234Z,5.30
2018-07-13T19:05:11.654Z,7.97
2018-07-13T19:07:40.168Z,8.73
2018-07-13T19:10:08.881Z,7.87
2018-07-13T19:12:37.324Z,6.20
2018-07-13T19:15:06.130Z,7.60
2018-07-13T19:17:34.832Z,7.33
2018-07-13T19:20:03.463Z,8.70
2018-07-13T19:22:32.087Z,6.37
2018-07-13T19:25:00.696Z,3.40
2018-07-13T19:27:29.114Z,10.40
2018-07-13T19:29:57.544Z,10.03
2018-07-13T19:32:26.229Z,9.77
2018-07-13T19:34:54.644Z,8.80
2018-07-13T19:37:23.248Z,6.00
2018-07-13T19:39:51.728Z,13.70
2018-07-13T19:42:20.235Z,8.90
2018-07-13T19:44:48.662Z,9.20
2018-07-13T19:47:17.157Z,8.83
2018-07-13T19:49:45.749Z,11.67
2018-07-13T19:52:14.390Z,7.80
2018-07-13T19:54:43.167Z,8.10
2018-07-13T19:57:11.622Z,10.57
2018-07-13T19:59:40.032Z,7.23
2018-07-13T20:02:08.783Z,17.80
2018-07-13T20:04:37.585Z,7.93
2018-07-13T20:07:06.585Z,11.50
2018-07-13T20:09:35.332Z,8.37
2018-07-13T20:12:03.849Z,11.67
2018-07-13T20:14:32.369Z,9.87
2018-07-13T20:17:00.890Z,11.77
2018-07-13T20:19:29.218Z,9.83
2018-07-13T20:21:57.805Z,9.63
2018-07-13T20:24:26.213Z,11.53
2018-07-13T20:26:54.676Z,13.10
2018-07-13T20:29:23.254Z,12.00
2018-07-13T20:31:51.927Z,10.63
2018-07-13T20:34:20.377Z,9.00
2018-07-13T20:36:48.829Z,8.13
2018-07-13T20:39:17.258Z,14.10
2018-07-13T20:41:46.066Z,10.33
2018-07-13T20:44:14.518Z,8.13
2018-07-13T20:46:42.964Z,10.90
2018-07-13T20:49:11.777Z,11.00
2018-07-13T20:51:40.202Z,12.10
2018-07-13T20:54:08.651Z,11.50
2018-07-13T20:56:37.109Z,14.30
2018-07-13T20:59:05.565Z,18.90
2018-07-13T21:01:34.207Z,13.27
2018-07-13T21:04:02.669Z,12.17
2018-07-13T21:06:31.096Z,11.57
2018-07-13T21:08:59.608Z,11.80
2018-07-13T21:11:28.029Z,9.27
2018-07-13T21:13:56.601Z,9.00
2018-07-13T21:16:24.844Z,10.40
2018-07-13T21:18:53.613Z,13.20
2018-07-13T21:21:22.381Z,11.17
2018-07-13T21:23:51.077Z,11.70
2018-07-13T21:26:19.769Z,8.93
2018-07-13T21:28:48.365Z,13.80
2018-07-13T21:31:16.753Z,8.97
2018-07-13T21:33:45.761Z,6.57
2018-07-13T21:36:14.260Z,11.43
2018-07-13T21:38:42.762Z,15.10
2018-07-13T21:41:11.188Z,6.27
2018-07-13T21:43:39.572Z,10.43
2018-07-13T21:46:07.984Z,9.97
2018-07-13T21:48:36.416Z,10.00
2018-07-13T21:51:04.561Z,7.87
2018-07-13T21:53:34.063Z,10.67
2018-07-13T21:56:02.996Z,10.97
2018-07-13T21:58:31.523Z,5.63
2018-07-13T22:00:59.998Z,8.63
2018-07-13T22:03:29.356Z,6.90
2018-07-13T22:05:57.860Z,10.10
2018-07-13T22:08:26.468Z,5.60
2018-07-13T22:10:54.997Z,11.97
2018-07-13T22:13:23.456Z,8.03
2018-07-13T22:15:52.056Z,6.57
2018-07-13T22:18:20.498Z,10.20
2018-07-13T22:20:48.869Z,7.37
2018-07-13T22:23:17.406Z,6.30
2018-07-13T22:25:45.812Z,6.30
2018-07-13T22:28:14.213Z,6.57
2018-07-13T22:30:42.612Z,8.97
2018-07-13T22:33:11.137Z,8.03
2018-07-13T22:35:39.644Z,14.20
2018-07-13T22:38:08.053Z,9.53
2018-07-13T22:40:36.561Z,10.83
2018-07-13T22:43:05.464Z,10.70
2018-07-13T22:45:33.908Z,7.33
2018-07-13T22:48:02.380Z,7.50
2018-07-13T22:50:30.878Z,6.50
2018-07-13T22:52:59.317Z,6.77
2018-07-13T22:55:28.065Z,5.87
2018-07-13T22:57:56.465Z,10.60
2018-07-13T23:00:24.865Z,5.97
2018-07-13T23:02:53.358Z,7.90
2018-07-13T23:05:21.769Z,6.43
2018-07-13T23:07:50.289Z,7.30
2018-07-13T23:10:18.761Z,8.93
2018-07-13T23:12:47.184Z,6.47
2018-07-13T23:15:15.812Z,5.63
2018-07-13T23:17:44.222Z,13.33
2018-07-13T23:20:12.624Z,11.10
2018-07-13T23:22:41.292Z,8.40
2018-07-13T23:25:09.692Z,8.60
2018-07-13T23:27:38.093Z,8.07
2018-07-13T23:30:06.588Z,8.13
2018-07-13T23:32:35.106Z,8.60
2018-07-13T23:35:03.525Z,13.70
2018-07-13T23:37:31.941Z,9.60
2018-07-13T23:40:00.376Z,15.00
2018-07-13T23:42:29.080Z,8.37
2018-07-13T23:44:57.488Z,9.73
2018-07-13T23:47:25.884Z,8.07
2018-07-13T23:49:54.365Z,6.87
2018-07-13T23:52:22.761Z,8.50
2018-07-13T23:54:51.146Z,7.40
2018-07-13T23:57:19.760Z,11.13
2018-07-13T23:59:48.165Z,8.67
